sensor_id;sensor_type;location;lat;lon;timestamp;P1;durP1;ratioP1;P2;durP2;ratioP2
17141;SDS011;32805;53.556;9.944;2024-02-26T00:00:37;6.88;;;5.55;;
17141;SDS011;32805;53.556;9.944;2024-02-26T00:03:05;6.45;;;5.63;;
17141;SDS011;32805;53.556;9.944;2024-02-26T00:05:33;6.32;;;5.72;;
17141;SDS011;32805;53.556;9.944;2024-02-26T00:08:00;11.65;;;7.60;;
17141;SDS011;32805;53.556;9.944;2024-02-26T00:10:31;7.03;;;5.88;;
17141;SDS011;32805;53.556;9.944;2024-02-26T00:12:58;7.63;;;6.90;;
17141;SDS011;32805;53.556;9.944;2024-02-26T00:15:28;7.60;;;6.70;;
17141;SDS011;32805;53.556;9.944;2024-02-26T00:17:57;7.20;;;6.50;;
17141;SDS011;32805;53.556;9.944;2024-02-26T00:20:25;7.95;;;6.65;;
17141;SDS011;32805;53.556;9.944;2024-02-26T00:22:52;7.80;;;6.95;;
17141;SDS011;32805;53.556;9.944;2024-02-26T00:25:20;9.90;;;7.43;;
17141;SDS011;32805;53.556;9.944;2024-02-26T00:27:47;9.95;;;8.18;;
17141;SDS011;32805;53.556;9.944;2024-02-26T00:30:15;10.25;;;8.27;;
17141;SDS011;32805;53.556;9.944;2024-02-26T00:32:42;8.98;;;7.63;;
17141;SDS011;32805;53.556;9.944;2024-02-26T00:35:11;8.90;;;7.78;;
17141;SDS011;32805;53.556;9.944;2024-02-26T00:37:39;11.90;;;8.80;;
17141;SDS011;32805;53.556;9.944;2024-02-26T00:40:07;9.77;;;8.05;;
17141;SDS011;32805;53.556;9.944;2024-02-26T00:42:35;9.02;;;7.60;;
17141;SDS011;32805;53.556;9.944;2024-02-26T00:45:04;8.73;;;7.03;;
17141;SDS011;32805;53.556;9.944;2024-02-26T00:47:32;9.98;;;8.27;;
17141;SDS011;32805;53.556;9.944;2024-02-26T00:49:59;8.43;;;7.43;;
17141;SDS011;32805;53.556;9.944;2024-02-26T00:52:28;8.70;;;7.80;;
17141;SDS011;32805;53.556;9.944;2024-02-26T00:54:55;10.18;;;8.10;;
17141;SDS011;32805;53.556;9.944;2024-02-26T00:57:23;8.98;;;7.57;;
17141;SDS011;32805;53.556;9.944;2024-02-26T00:59:50;8.73;;;7.32;;
17141;SDS011;32805;53.556;9.944;2024-02-26T01:02:18;10.65;;;7.72;;
17141;SDS011;32805;53.556;9.944;2024-02-26T01:04:45;10.40;;;8.10;;
17141;SDS011;32805;53.556;9.944;2024-02-26T01:07:13;9.68;;;8.38;;
17141;SDS011;32805;53.556;9.944;2024-02-26T01:09:41;8.82;;;7.75;;
17141;SDS011;32805;53.556;9.944;2024-02-26T01:12:09;8.98;;;7.35;;
17141;SDS011;32805;53.556;9.944;2024-02-26T01:14:37;11.10;;;8.13;;
17141;SDS011;32805;53.556;9.944;2024-02-26T01:17:04;8.90;;;7.30;;
17141;SDS011;32805;53.556;9.944;2024-02-26T01:19:31;8.63;;;7.22;;
17141;SDS011;32805;53.556;9.944;2024-02-26T01:21:59;9.55;;;8.45;;
17141;SDS011;32805;53.556;9.944;2024-02-26T01:24:26;10.20;;;8.60;;
17141;SDS011;32805;53.556;9.944;2024-02-26T01:26:55;9.38;;;8.15;;
17141;SDS011;32805;53.556;9.944;2024-02-26T01:29:23;11.55;;;8.90;;
17141;SDS011;32805;53.556;9.944;2024-02-26T01:31:50;11.32;;;8.95;;
17141;SDS011;32805;53.556;9.944;2024-02-26T01:34:18;10.18;;;8.80;;
17141;SDS011;32805;53.556;9.944;2024-02-26T01:36:46;10.10;;;8.00;;
17141;SDS011;32805;53.556;9.944;2024-02-26T01:39:13;9.85;;;7.93;;
17141;SDS011;32805;53.556;9.944;2024-02-26T01:41:41;10.00;;;8.70;;
17141;SDS011;32805;53.556;9.944;2024-02-26T01:44:10;10.70;;;8.93;;
17141;SDS011;32805;53.556;9.944;2024-02-26T01:46:39;11.68;;;8.88;;
17141;SDS011;32805;53.556;9.944;2024-02-26T01:49:07;11.38;;;9.07;;
17141;SDS011;32805;53.556;9.944;2024-02-26T01:51:36;9.68;;;8.65;;
17141;SDS011;32805;53.556;9.944;2024-02-26T01:54:03;11.05;;;8.93;;
17141;SDS011;32805;53.556;9.944;2024-02-26T01:56:31;9.57;;;8.48;;
17141;SDS011;32805;53.556;9.944;2024-02-26T01:58:59;9.70;;;8.15;;
17141;SDS011;32805;53.556;9.944;2024-02-26T02:01:28;12.30;;;8.68;;
17141;SDS011;32805;53.556;9.944;2024-02-26T02:03:57;9.40;;;8.15;;
17141;SDS011;32805;53.556;9.944;2024-02-26T02:06:25;9.77;;;8.20;;
17141;SDS011;32805;53.556;9.944;2024-02-26T02:08:54;12.38;;;8.75;;
17141;SDS011;32805;53.556;9.944;2024-02-26T02:11:22;12.13;;;8.77;;
17141;SDS011;32805;53.556;9.944;2024-02-26T02:13:49;11.57;;;8.52;;
17141;SDS011;32805;53.556;9.944;2024-02-26T02:16:17;11.32;;;9.05;;
17141;SDS011;32805;53.556;9.944;2024-02-26T02:18:45;10.80;;;8.55;;
17141;SDS011;32805;53.556;9.944;2024-02-26T02:21:14;11.30;;;8.30;;
17141;SDS011;32805;53.556;9.944;2024-02-26T02:23:42;11.02;;;8.55;;
17141;SDS011;32805;53.556;9.944;2024-02-26T02:26:12;14.30;;;9.07;;
17141;SDS011;32805;53.556;9.944;2024-02-26T02:28:40;9.23;;;7.88;;
17141;SDS011;32805;53.556;9.944;2024-02-26T02:31:08;12.65;;;8.82;;
17141;SDS011;32805;53.556;9.944;2024-02-26T02:33:36;12.18;;;8.63;;
17141;SDS011;32805;53.556;9.944;2024-02-26T02:36:04;11.88;;;8.88;;
17141;SDS011;32805;53.556;9.944;2024-02-26T02:38:36;11.95;;;9.32;;
17141;SDS011;32805;53.556;9.944;2024-02-26T02:41:04;11.10;;;8.82;;
17141;SDS011;32805;53.556;9.944;2024-02-26T02:43:32;12.23;;;8.50;;
17141;SDS011;32805;53.556;9.944;2024-02-26T02:45:59;12.70;;;9.55;;
17141;SDS011;32805;53.556;9.944;2024-02-26T02:48:27;11.82;;;8.75;;
17141;SDS011;32805;53.556;9.944;2024-02-26T02:50:54;10.48;;;8.40;;
17141;SDS011;32805;53.556;9.944;2024-02-26T02:53:22;13.90;;;9.93;;
17141;SDS011;32805;53.556;9.944;2024-02-26T02:55:50;13.18;;;9.65;;
17141;SDS011;32805;53.556;9.944;2024-02-26T02:58:18;13.45;;;10.13;;
17141;SDS011;32805;53.556;9.944;2024-02-26T03:00:45;12.38;;;8.85;;
17141;SDS011;32805;53.556;9.944;2024-02-26T03:03:13;15.00;;;9.60;;
17141;SDS011;32805;53.556;9.944;2024-02-26T03:05:40;11.65;;;9.52;;
17141;SDS011;32805;53.556;9.944;2024-02-26T03:08:08;12.75;;;9.48;;
17141;SDS011;32805;53.556;9.944;2024-02-26T03:10:36;12.20;;;9.50;;
17141;SDS011;32805;53.556;9.944;2024-02-26T03:13:05;14.55;;;10.38;;
17141;SDS011;32805;53.556;9.944;2024-02-26T03:15:32;15.32;;;12.30;;
17141;SDS011;32805;53.556;9.944;2024-02-26T03:18:00;15.95;;;12.23;;
17141;SDS011;32805;53.556;9.944;2024-02-26T03:20:28;13.82;;;10.82;;
17141;SDS011;32805;53.556;9.944;2024-02-26T03:22:55;15.38;;;11.80;;
17141;SDS011;32805;53.556;9.944;2024-02-26T03:25:23;17.35;;;12.95;;
17141;SDS011;32805;53.556;9.944;2024-02-26T03:27:50;16.48;;;12.77;;
17141;SDS011;32805;53.556;9.944;2024-02-26T03:30:19;14.68;;;12.05;;
17141;SDS011;32805;53.556;9.944;2024-02-26T03:32:47;17.35;;;13.13;;
17141;SDS011;32805;53.556;9.944;2024-02-26T03:35:14;18.88;;;13.85;;
17141;SDS011;32805;53.556;9.944;2024-02-26T03:37:42;17.23;;;13.25;;
17141;SDS011;32805;53.556;9.944;2024-02-26T03:40:10;14.88;;;12.23;;
17141;SDS011;32805;53.556;9.944;2024-02-26T03:42:39;16.73;;;12.82;;
17141;SDS011;32805;53.556;9.944;2024-02-26T03:45:06;15.10;;;11.95;;
17141;SDS011;32805;53.556;9.944;2024-02-26T03:47:35;15.73;;;12.48;;
17141;SDS011;32805;53.556;9.944;2024-02-26T03:50:02;19.17;;;13.90;;
17141;SDS011;32805;53.556;9.944;2024-02-26T03:52:31;17.55;;;13.63;;
17141;SDS011;32805;53.556;9.944;2024-02-26T03:54:58;17.80;;;13.25;;
17141;SDS011;32805;53.556;9.944;2024-02-26T03:57:26;17.90;;;13.23;;
17141;SDS011;32805;53.556;9.944;2024-02-26T03:59:53;16.65;;;12.63;;
17141;SDS011;32805;53.556;9.944;2024-02-26T04:02:21;17.70;;;14.02;;
17141;SDS011;32805;53.556;9.944;2024-02-26T04:04:51;16.20;;;13.65;;
17141;SDS011;32805;53.556;9.944;2024-02-26T04:07:18;18.05;;;13.90;;
17141;SDS011;32805;53.556;9.944;2024-02-26T04:09:46;18.00;;;14.07;;
17141;SDS011;32805;53.556;9.944;2024-02-26T04:12:13;18.60;;;12.73;;
17141;SDS011;32805;53.556;9.944;2024-02-26T04:14:41;20.02;;;15.10;;
17141;SDS011;32805;53.556;9.944;2024-02-26T04:17:08;18.50;;;13.40;;
17141;SDS011;32805;53.556;9.944;2024-02-26T04:19:37;16.98;;;13.63;;
17141;SDS011;32805;53.556;9.944;2024-02-26T04:22:06;18.10;;;13.20;;
17141;SDS011;32805;53.556;9.944;2024-02-26T04:24:33;17.13;;;13.18;;
17141;SDS011;32805;53.556;9.944;2024-02-26T04:27:00;17.08;;;13.00;;
17141;SDS011;32805;53.556;9.944;2024-02-26T04:29:28;18.05;;;13.70;;
17141;SDS011;32805;53.556;9.944;2024-02-26T04:31:55;19.40;;;13.93;;
17141;SDS011;32805;53.556;9.944;2024-02-26T04:34:23;17.73;;;13.93;;
17141;SDS011;32805;53.556;9.944;2024-02-26T04:36:50;16.45;;;12.88;;
17141;SDS011;32805;53.556;9.944;2024-02-26T04:39:19;16.95;;;12.90;;
17141;SDS011;32805;53.556;9.944;2024-02-26T04:41:47;16.25;;;12.55;;
17141;SDS011;32805;53.556;9.944;2024-02-26T04:44:14;16.45;;;13.20;;
17141;SDS011;32805;53.556;9.944;2024-02-26T04:46:42;18.58;;;13.50;;
17141;SDS011;32805;53.556;9.944;2024-02-26T04:49:09;16.98;;;14.00;;
17141;SDS011;32805;53.556;9.944;2024-02-26T04:51:37;20.30;;;14.07;;
17141;SDS011;32805;53.556;9.944;2024-02-26T04:54:04;19.02;;;14.52;;
17141;SDS011;32805;53.556;9.944;2024-02-26T04:56:33;18.17;;;13.00;;
17141;SDS011;32805;53.556;9.944;2024-02-26T04:59:01;19.55;;;14.02;;
17141;SDS011;32805;53.556;9.944;2024-02-26T05:01:28;18.02;;;13.93;;
17141;SDS011;32805;53.556;9.944;2024-02-26T05:03:56;18.00;;;13.57;;
17141;SDS011;32805;53.556;9.944;2024-02-26T05:06:23;19.05;;;14.00;;
17141;SDS011;32805;53.556;9.944;2024-02-26T05:08:51;18.88;;;14.45;;
17141;SDS011;32805;53.556;9.944;2024-02-26T05:11:18;18.25;;;13.43;;
17141;SDS011;32805;53.556;9.944;2024-02-26T05:13:48;18.15;;;13.82;;
17141;SDS011;32805;53.556;9.944;2024-02-26T05:16:15;15.77;;;12.38;;
17141;SDS011;32805;53.556;9.944;2024-02-26T05:18:43;18.05;;;13.48;;
17141;SDS011;32805;53.556;9.944;2024-02-26T05:21:11;17.55;;;12.95;;
17141;SDS011;32805;53.556;9.944;2024-02-26T05:23:38;19.02;;;14.27;;
17141;SDS011;32805;53.556;9.944;2024-02-26T05:26:06;18.63;;;14.27;;
17141;SDS011;32805;53.556;9.944;2024-02-26T05:28:33;19.80;;;14.23;;
17141;SDS011;32805;53.556;9.944;2024-02-26T05:31:02;18.98;;;13.90;;
17141;SDS011;32805;53.556;9.944;2024-02-26T05:33:30;20.08;;;13.43;;
17141;SDS011;32805;53.556;9.944;2024-02-26T05:35:57;18.52;;;14.10;;
17141;SDS011;32805;53.556;9.944;2024-02-26T05:38:30;19.58;;;14.30;;
17141;SDS011;32805;53.556;9.944;2024-02-26T05:40:58;22.80;;;15.32;;
17141;SDS011;32805;53.556;9.944;2024-02-26T05:43:26;19.10;;;13.60;;
17141;SDS011;32805;53.556;9.944;2024-02-26T05:45:53;22.95;;;15.95;;
17141;SDS011;32805;53.556;9.944;2024-02-26T05:48:22;20.27;;;14.93;;
17141;SDS011;32805;53.556;9.944;2024-02-26T05:50:50;21.38;;;14.40;;
17141;SDS011;32805;53.556;9.944;2024-02-26T05:53:17;21.38;;;14.40;;
17141;SDS011;32805;53.556;9.944;2024-02-26T05:55:44;19.60;;;15.30;;
17141;SDS011;32805;53.556;9.944;2024-02-26T05:58:12;21.58;;;14.63;;
17141;SDS011;32805;53.556;9.944;2024-02-26T06:00:40;20.60;;;14.25;;
17141;SDS011;32805;53.556;9.944;2024-02-26T06:03:08;20.10;;;14.55;;
17141;SDS011;32805;53.556;9.944;2024-02-26T06:05:36;23.60;;;13.63;;
17141;SDS011;32805;53.556;9.944;2024-02-26T06:08:04;19.75;;;13.63;;
17141;SDS011;32805;53.556;9.944;2024-02-26T06:10:33;18.05;;;12.98;;
17141;SDS011;32805;53.556;9.944;2024-02-26T06:13:01;18.75;;;13.52;;
17141;SDS011;32805;53.556;9.944;2024-02-26T06:15:28;19.05;;;14.02;;
17141;SDS011;32805;53.556;9.944;2024-02-26T06:17:56;20.45;;;14.70;;
17141;SDS011;32805;53.556;9.944;2024-02-26T06:20:23;19.73;;;14.23;;
17141;SDS011;32805;53.556;9.944;2024-02-26T06:22:52;17.88;;;12.73;;
17141;SDS011;32805;53.556;9.944;2024-02-26T06:25:20;17.38;;;13.07;;
17141;SDS011;32805;53.556;9.944;2024-02-26T06:27:47;17.95;;;12.90;;
17141;SDS011;32805;53.556;9.944;2024-02-26T06:30:16;16.65;;;12.98;;
17141;SDS011;32805;53.556;9.944;2024-02-26T06:32:44;17.02;;;12.55;;
17141;SDS011;32805;53.556;9.944;2024-02-26T06:35:12;16.83;;;12.20;;
17141;SDS011;32805;53.556;9.944;2024-02-26T06:37:39;17.60;;;12.70;;
17141;SDS011;32805;53.556;9.944;2024-02-26T06:40:08;18.23;;;13.68;;
17141;SDS011;32805;53.556;9.944;2024-02-26T06:42:36;16.58;;;12.43;;
17141;SDS011;32805;53.556;9.944;2024-02-26T06:45:04;17.52;;;13.23;;
17141;SDS011;32805;53.556;9.944;2024-02-26T06:47:32;18.17;;;13.02;;
17141;SDS011;32805;53.556;9.944;2024-02-26T06:49:59;17.60;;;11.98;;
17141;SDS011;32805;53.556;9.944;2024-02-26T06:52:27;46.40;;;20.40;;
17141;SDS011;32805;53.556;9.944;2024-02-26T06:54:55;26.48;;;14.25;;
17141;SDS011;32805;53.556;9.944;2024-02-26T06:57:24;21.15;;;14.27;;
17141;SDS011;32805;53.556;9.944;2024-02-26T06:59:52;22.92;;;15.25;;
17141;SDS011;32805;53.556;9.944;2024-02-26T07:02:19;25.10;;;14.13;;
17141;SDS011;32805;53.556;9.944;2024-02-26T07:04:47;20.73;;;13.57;;
17141;SDS011;32805;53.556;9.944;2024-02-26T07:07:14;25.92;;;13.63;;
17141;SDS011;32805;53.556;9.944;2024-02-26T07:09:44;20.88;;;14.02;;
17141;SDS011;32805;53.556;9.944;2024-02-26T07:12:11;19.10;;;13.38;;
17141;SDS011;32805;53.556;9.944;2024-02-26T07:14:41;22.85;;;13.52;;
17141;SDS011;32805;53.556;9.944;2024-02-26T07:17:09;22.10;;;14.15;;
17141;SDS011;32805;53.556;9.944;2024-02-26T07:19:37;21.00;;;13.65;;
17141;SDS011;32805;53.556;9.944;2024-02-26T07:22:06;21.45;;;13.32;;
17141;SDS011;32805;53.556;9.944;2024-02-26T07:24:33;19.90;;;13.30;;
17141;SDS011;32805;53.556;9.944;2024-02-26T07:27:01;22.73;;;14.77;;
17141;SDS011;32805;53.556;9.944;2024-02-26T07:29:29;21.40;;;14.57;;
17141;SDS011;32805;53.556;9.944;2024-02-26T07:31:57;21.38;;;12.98;;
17141;SDS011;32805;53.556;9.944;2024-02-26T07:34:25;18.85;;;13.48;;
17141;SDS011;32805;53.556;9.944;2024-02-26T07:36:56;20.10;;;13.15;;
17141;SDS011;32805;53.556;9.944;2024-02-26T07:39:24;19.15;;;12.85;;
17141;SDS011;32805;53.556;9.944;2024-02-26T07:41:52;20.60;;;13.30;;
17141;SDS011;32805;53.556;9.944;2024-02-26T07:44:20;15.98;;;11.55;;
17141;SDS011;32805;53.556;9.944;2024-02-26T07:46:47;20.25;;;12.30;;
17141;SDS011;32805;53.556;9.944;2024-02-26T07:49:16;20.08;;;12.75;;
17141;SDS011;32805;53.556;9.944;2024-02-26T07:51:44;16.75;;;12.77;;
17141;SDS011;32805;53.556;9.944;2024-02-26T07:54:11;17.27;;;12.55;;
17141;SDS011;32805;53.556;9.944;2024-02-26T07:56:39;17.10;;;12.07;;
17141;SDS011;32805;53.556;9.944;2024-02-26T07:59:06;17.40;;;13.02;;
17141;SDS011;32805;53.556;9.944;2024-02-26T08:01:34;17.98;;;13.55;;
17141;SDS011;32805;53.556;9.944;2024-02-26T08:04:01;15.00;;;11.95;;
17141;SDS011;32805;53.556;9.944;2024-02-26T08:06:31;17.80;;;12.02;;
17141;SDS011;32805;53.556;9.944;2024-02-26T08:09:03;17.70;;;12.25;;
17141;SDS011;32805;53.556;9.944;2024-02-26T08:11:31;19.08;;;14.25;;
17141;SDS011;32805;53.556;9.944;2024-02-26T08:13:58;18.33;;;12.27;;
17141;SDS011;32805;53.556;9.944;2024-02-26T08:16:26;16.10;;;11.48;;
17141;SDS011;32805;53.556;9.944;2024-02-26T08:18:53;16.80;;;12.85;;
17141;SDS011;32805;53.556;9.944;2024-02-26T08:21:21;17.00;;;12.32;;
17141;SDS011;32805;53.556;9.944;2024-02-26T08:23:50;20.58;;;12.80;;
17141;SDS011;32805;53.556;9.944;2024-02-26T08:26:17;18.05;;;12.98;;
17141;SDS011;32805;53.556;9.944;2024-02-26T08:28:46;17.02;;;12.95;;
17141;SDS011;32805;53.556;9.944;2024-02-26T08:31:15;17.10;;;12.02;;
17141;SDS011;32805;53.556;9.944;2024-02-26T08:33:42;16.92;;;11.73;;
17141;SDS011;32805;53.556;9.944;2024-02-26T08:36:11;16.77;;;12.57;;
17141;SDS011;32805;53.556;9.944;2024-02-26T08:38:38;16.52;;;12.27;;
17141;SDS011;32805;53.556;9.944;2024-02-26T08:41:07;17.73;;;12.52;;
17141;SDS011;32805;53.556;9.944;2024-02-26T08:43:35;15.35;;;11.68;;
17141;SDS011;32805;53.556;9.944;2024-02-26T08:46:02;17.52;;;12.05;;
17141;SDS011;32805;53.556;9.944;2024-02-26T08:48:30;16.75;;;12.35;;
17141;SDS011;32805;53.556;9.944;2024-02-26T08:50:58;19.58;;;13.13;;
17141;SDS011;32805;53.556;9.944;2024-02-26T08:53:25;19.50;;;12.80;;
17141;SDS011;32805;53.556;9.944;2024-02-26T08:56:08;16.95;;;12.60;;
17141;SDS011;32805;53.556;9.944;2024-02-26T08:58:35;21.00;;;14.25;;
17141;SDS011;32805;53.556;9.944;2024-02-26T09:01:03;18.10;;;12.65;;
17141;SDS011;32805;53.556;9.944;2024-02-26T09:03:30;19.05;;;13.05;;
17141;SDS011;32805;53.556;9.944;2024-02-26T09:05:58;17.58;;;12.60;;
17141;SDS011;32805;53.556;9.944;2024-02-26T09:08:26;17.02;;;11.90;;
17141;SDS011;32805;53.556;9.944;2024-02-26T09:10:53;15.15;;;11.32;;
17141;SDS011;32805;53.556;9.944;2024-02-26T09:13:22;19.33;;;12.80;;
17141;SDS011;32805;53.556;9.944;2024-02-26T09:15:49;14.20;;;10.70;;
17141;SDS011;32805;53.556;9.944;2024-02-26T09:18:17;15.35;;;10.55;;
17141;SDS011;32805;53.556;9.944;2024-02-26T09:20:45;14.05;;;10.45;;
17141;SDS011;32805;53.556;9.944;2024-02-26T09:23:12;14.82;;;10.60;;
17141;SDS011;32805;53.556;9.944;2024-02-26T09:25:39;12.70;;;10.18;;
17141;SDS011;32805;53.556;9.944;2024-02-26T09:28:07;17.25;;;10.68;;
17141;SDS011;32805;53.556;9.944;2024-02-26T09:30:36;13.90;;;10.32;;
17141;SDS011;32805;53.556;9.944;2024-02-26T09:33:05;16.20;;;11.85;;
17141;SDS011;32805;53.556;9.944;2024-02-26T09:35:32;12.88;;;9.60;;
17141;SDS011;32805;53.556;9.944;2024-02-26T09:38:00;15.20;;;11.80;;
17141;SDS011;32805;53.556;9.944;2024-02-26T09:40:27;14.27;;;10.77;;
17141;SDS011;32805;53.556;9.944;2024-02-26T09:42:56;14.20;;;10.43;;
17141;SDS011;32805;53.556;9.944;2024-02-26T09:45:26;13.85;;;10.25;;
17141;SDS011;32805;53.556;9.944;2024-02-26T09:47:56;13.27;;;9.48;;
17141;SDS011;32805;53.556;9.944;2024-02-26T09:50:24;12.23;;;9.10;;
17141;SDS011;32805;53.556;9.944;2024-02-26T09:52:52;12.40;;;9.25;;
17141;SDS011;32805;53.556;9.944;2024-02-26T09:55:20;13.95;;;10.23;;
17141;SDS011;32805;53.556;9.944;2024-02-26T09:57:47;13.65;;;9.60;;
17141;SDS011;32805;53.556;9.944;2024-02-26T10:00:17;14.30;;;10.00;;
17141;SDS011;32805;53.556;9.944;2024-02-26T10:02:45;16.27;;;10.35;;
17141;SDS011;32805;53.556;9.944;2024-02-26T10:05:16;14.40;;;11.02;;
17141;SDS011;32805;53.556;9.944;2024-02-26T10:07:44;15.55;;;10.57;;
17141;SDS011;32805;53.556;9.944;2024-02-26T10:10:12;19.30;;;12.02;;
17141;SDS011;32805;53.556;9.944;2024-02-26T10:12:40;16.40;;;11.90;;
17141;SDS011;32805;53.556;9.944;2024-02-26T10:15:07;17.35;;;11.63;;
17141;SDS011;32805;53.556;9.944;2024-02-26T10:17:35;15.02;;;10.32;;
17141;SDS011;32805;53.556;9.944;2024-02-26T10:20:11;17.42;;;11.55;;
17141;SDS011;32805;53.556;9.944;2024-02-26T10:22:40;17.75;;;11.50;;
17141;SDS011;32805;53.556;9.944;2024-02-26T10:25:08;15.82;;;10.38;;
17141;SDS011;32805;53.556;9.944;2024-02-26T10:27:35;15.30;;;11.07;;
17141;SDS011;32805;53.556;9.944;2024-02-26T10:30:03;16.02;;;10.77;;
17141;SDS011;32805;53.556;9.944;2024-02-26T10:32:32;15.98;;;11.05;;
17141;SDS011;32805;53.556;9.944;2024-02-26T10:34:59;20.85;;;14.05;;
17141;SDS011;32805;53.556;9.944;2024-02-26T10:37:27;15.68;;;11.20;;
17141;SDS011;32805;53.556;9.944;2024-02-26T10:39:57;15.48;;;11.55;;
17141;SDS011;32805;53.556;9.944;2024-02-26T10:42:25;19.50;;;13.45;;
17141;SDS011;32805;53.556;9.944;2024-02-26T10:44:52;16.40;;;11.73;;
17141;SDS011;32805;53.556;9.944;2024-02-26T10:47:20;18.85;;;13.35;;
17141;SDS011;32805;53.556;9.944;2024-02-26T10:49:48;22.05;;;15.73;;
17141;SDS011;32805;53.556;9.944;2024-02-26T10:52:16;17.10;;;11.65;;
17141;SDS011;32805;53.556;9.944;2024-02-26T10:54:46;15.05;;;11.40;;
17141;SDS011;32805;53.556;9.944;2024-02-26T10:57:18;18.30;;;12.38;;
17141;SDS011;32805;53.556;9.944;2024-02-26T10:59:46;14.85;;;10.45;;
17141;SDS011;32805;53.556;9.944;2024-02-26T11:02:13;14.60;;;10.73;;
17141;SDS011;32805;53.556;9.944;2024-02-26T11:04:41;14.93;;;10.90;;
17141;SDS011;32805;53.556;9.944;2024-02-26T11:07:10;16.27;;;10.95;;
17141;SDS011;32805;53.556;9.944;2024-02-26T11:09:38;16.20;;;10.48;;
17141;SDS011;32805;53.556;9.944;2024-02-26T11:12:10;13.20;;;10.23;;
17141;SDS011;32805;53.556;9.944;2024-02-26T11:14:40;15.32;;;10.25;;
17141;SDS011;32805;53.556;9.944;2024-02-26T11:17:11;17.13;;;11.30;;
17141;SDS011;32805;53.556;9.944;2024-02-26T11:19:40;14.23;;;10.80;;
17141;SDS011;32805;53.556;9.944;2024-02-26T11:22:08;15.93;;;10.95;;
17141;SDS011;32805;53.556;9.944;2024-02-26T11:24:49;16.30;;;11.00;;
17141;SDS011;32805;53.556;9.944;2024-02-26T11:27:18;16.23;;;10.07;;
17141;SDS011;32805;53.556;9.944;2024-02-26T11:29:49;22.02;;;16.02;;
17141;SDS011;32805;53.556;9.944;2024-02-26T11:32:18;20.55;;;14.05;;
17141;SDS011;32805;53.556;9.944;2024-02-26T11:34:46;16.45;;;11.25;;
17141;SDS011;32805;53.556;9.944;2024-02-26T11:37:15;18.30;;;13.05;;
17141;SDS011;32805;53.556;9.944;2024-02-26T11:39:44;16.40;;;11.80;;
17141;SDS011;32805;53.556;9.944;2024-02-26T11:42:13;16.73;;;11.32;;
17141;SDS011;32805;53.556;9.944;2024-02-26T11:44:41;16.95;;;11.95;;
17141;SDS011;32805;53.556;9.944;2024-02-26T11:47:13;15.40;;;9.70;;
17141;SDS011;32805;53.556;9.944;2024-02-26T11:49:41;16.02;;;10.05;;
17141;SDS011;32805;53.556;9.944;2024-02-26T11:52:09;16.20;;;10.57;;
17141;SDS011;32805;53.556;9.944;2024-02-26T11:54:43;16.20;;;11.13;;
17141;SDS011;32805;53.556;9.944;2024-02-26T11:57:24;17.73;;;11.20;;
17141;SDS011;32805;53.556;9.944;2024-02-26T11:59:52;15.05;;;10.90;;
17141;SDS011;32805;53.556;9.944;2024-02-26T12:02:40;15.63;;;11.18;;
17141;SDS011;32805;53.556;9.944;2024-02-26T12:05:09;15.32;;;9.43;;
17141;SDS011;32805;53.556;9.944;2024-02-26T12:07:39;15.10;;;9.52;;
17141;SDS011;32805;53.556;9.944;2024-02-26T12:10:13;14.25;;;9.25;;
17141;SDS011;32805;53.556;9.944;2024-02-26T12:12:41;12.27;;;8.70;;
17141;SDS011;32805;53.556;9.944;2024-02-26T12:15:09;13.60;;;8.57;;
17141;SDS011;32805;53.556;9.944;2024-02-26T12:17:40;12.40;;;9.07;;
17141;SDS011;32805;53.556;9.944;2024-02-26T12:20:08;9.35;;;7.65;;
17141;SDS011;32805;53.556;9.944;2024-02-26T12:22:36;12.35;;;8.85;;
17141;SDS011;32805;53.556;9.944;2024-02-26T12:25:06;10.82;;;7.80;;
17141;SDS011;32805;53.556;9.944;2024-02-26T12:27:33;13.25;;;8.50;;
17141;SDS011;32805;53.556;9.944;2024-02-26T12:30:01;10.60;;;7.93;;
17141;SDS011;32805;53.556;9.944;2024-02-26T12:32:29;11.65;;;8.52;;
17141;SDS011;32805;53.556;9.944;2024-02-26T12:34:58;11.43;;;8.68;;
17141;SDS011;32805;53.556;9.944;2024-02-26T12:37:26;10.73;;;7.88;;
17141;SDS011;32805;53.556;9.944;2024-02-26T12:39:54;13.18;;;8.00;;
17141;SDS011;32805;53.556;9.944;2024-02-26T12:42:21;13.15;;;9.13;;
17141;SDS011;32805;53.556;9.944;2024-02-26T12:44:49;12.25;;;8.63;;
17141;SDS011;32805;53.556;9.944;2024-02-26T12:47:17;14.60;;;9.27;;
17141;SDS011;32805;53.556;9.944;2024-02-26T12:49:46;12.52;;;9.55;;
17141;SDS011;32805;53.556;9.944;2024-02-26T12:52:15;13.20;;;9.57;;
17141;SDS011;32805;53.556;9.944;2024-02-26T12:54:44;15.10;;;10.43;;
17141;SDS011;32805;53.556;9.944;2024-02-26T12:57:11;14.35;;;10.13;;
17141;SDS011;32805;53.556;9.944;2024-02-26T12:59:39;13.13;;;10.98;;
17141;SDS011;32805;53.556;9.944;2024-02-26T13:02:06;13.98;;;9.40;;
17141;SDS011;32805;53.556;9.944;2024-02-26T13:04:35;11.98;;;9.35;;
17141;SDS011;32805;53.556;9.944;2024-02-26T13:07:03;14.57;;;10.55;;
17141;SDS011;32805;53.556;9.944;2024-02-26T13:09:35;16.08;;;10.18;;
17141;SDS011;32805;53.556;9.944;2024-02-26T13:12:04;14.57;;;10.15;;
17141;SDS011;32805;53.556;9.944;2024-02-26T13:14:32;15.30;;;10.27;;
17141;SDS011;32805;53.556;9.944;2024-02-26T13:17:00;12.45;;;9.38;;
17141;SDS011;32805;53.556;9.944;2024-02-26T13:19:28;13.77;;;10.45;;
17141;SDS011;32805;53.556;9.944;2024-02-26T13:21:57;11.93;;;9.18;;
17141;SDS011;32805;53.556;9.944;2024-02-26T13:24:30;13.07;;;8.98;;
17141;SDS011;32805;53.556;9.944;2024-02-26T13:26:59;11.90;;;8.80;;
17141;SDS011;32805;53.556;9.944;2024-02-26T13:29:27;12.35;;;9.73;;
17141;SDS011;32805;53.556;9.944;2024-02-26T13:31:55;10.68;;;8.13;;
17141;SDS011;32805;53.556;9.944;2024-02-26T13:34:23;13.65;;;8.90;;
17141;SDS011;32805;53.556;9.944;2024-02-26T13:36:52;12.88;;;8.60;;
17141;SDS011;32805;53.556;9.944;2024-02-26T13:39:22;13.57;;;9.43;;
17141;SDS011;32805;53.556;9.944;2024-02-26T13:41:51;13.38;;;9.85;;
17141;SDS011;32805;53.556;9.944;2024-02-26T13:44:20;10.70;;;8.40;;
17141;SDS011;32805;53.556;9.944;2024-02-26T13:46:48;13.38;;;9.18;;
17141;SDS011;32805;53.556;9.944;2024-02-26T13:49:15;14.43;;;9.52;;
17141;SDS011;32805;53.556;9.944;2024-02-26T13:51:43;12.20;;;8.98;;
17141;SDS011;32805;53.556;9.944;2024-02-26T13:54:10;12.88;;;8.88;;
17141;SDS011;32805;53.556;9.944;2024-02-26T13:56:40;23.10;;;14.90;;
17141;SDS011;32805;53.556;9.944;2024-02-26T13:59:11;13.68;;;10.30;;
17141;SDS011;32805;53.556;9.944;2024-02-26T14:01:40;28.23;;;20.42;;
17141;SDS011;32805;53.556;9.944;2024-02-26T14:04:08;16.20;;;11.18;;
17141;SDS011;32805;53.556;9.944;2024-02-26T14:06:36;14.43;;;9.45;;
17141;SDS011;32805;53.556;9.944;2024-02-26T14:09:04;22.38;;;14.60;;
17141;SDS011;32805;53.556;9.944;2024-02-26T14:11:31;26.38;;;17.63;;
17141;SDS011;32805;53.556;9.944;2024-02-26T14:14:00;20.73;;;13.38;;
17141;SDS011;32805;53.556;9.944;2024-02-26T14:16:27;16.10;;;11.43;;
17141;SDS011;32805;53.556;9.944;2024-02-26T14:18:59;14.88;;;10.15;;
17141;SDS011;32805;53.556;9.944;2024-02-26T14:21:27;13.07;;;9.63;;
17141;SDS011;32805;53.556;9.944;2024-02-26T14:23:55;17.15;;;11.07;;
17141;SDS011;32805;53.556;9.944;2024-02-26T14:26:23;14.60;;;10.55;;
17141;SDS011;32805;53.556;9.944;2024-02-26T14:28:51;15.57;;;10.40;;
17141;SDS011;32805;53.556;9.944;2024-02-26T14:31:18;15.55;;;10.43;;
17141;SDS011;32805;53.556;9.944;2024-02-26T14:33:46;14.52;;;10.57;;